createdAt,value
2018-10-15T00:01:07.235Z,17.72
2018-10-15T00:02:06.670Z,17.70
2018-10-15T00:03:06.622Z,17.70
2018-10-15T00:04:06.642Z,17.62
2018-10-15T00:05:06.717Z,17.71
2018-10-15T00:06:06.782Z,17.64
2018-10-15T00:07:06.684Z,17.66
2018-10-15T00:08:06.893Z,17.68
2018-10-15T00:09:07.120Z,17.71
2018-10-15T00:10:07.161Z,17.58
2018-10-15T00:11:06.739Z,17.62
2018-10-15T00:12:06.756Z,17.59
2018-10-15T00:13:06.769Z,17.68
2018-10-15T00:14:06.790Z,17.62
2018-10-15T00:15:06.848Z,17.59
2018-10-15T00:16:06.816Z,17.62
2018-10-15T00:17:06.827Z,17.63
2018-10-15T00:18:06.843Z,17.64
2018-10-15T00:19:06.883Z,17.63
2018-10-15T00:20:06.875Z,17.62
2018-10-15T00:21:06.891Z,17.62
2018-10-15T00:22:06.947Z,17.56
2018-10-15T00:23:06.922Z,17.55
2018-10-15T00:24:06.933Z,17.59
2018-10-15T00:25:07.088Z,17.51
2018-10-15T00:26:06.993Z,17.58
2018-10-15T00:29:07.302Z,17.49
2018-10-15T00:30:07.571Z,17.40
2018-10-15T00:32:07.635Z,17.40
2018-10-15T00:33:07.368Z,17.51
2018-10-15T00:34:07.133Z,17.51
2018-10-15T00:35:08.122Z,17.44
2018-10-15T00:36:07.115Z,17.46
2018-10-15T00:37:07.127Z,17.37
2018-10-15T00:38:07.298Z,17.33
2018-10-15T00:40:07.720Z,17.38
2018-10-15T00:41:07.196Z,17.25
2018-10-15T00:42:07.229Z,17.26
2018-10-15T00:43:07.217Z,17.34
2018-10-15T00:44:07.232Z,17.23
2018-10-15T00:45:07.252Z,17.16
2018-10-15T00:46:07.262Z,17.18
2018-10-15T00:47:07.529Z,17.26
2018-10-15T00:48:07.343Z,17.18
2018-10-15T00:49:07.306Z,17.31
2018-10-15T00:50:07.343Z,17.23
2018-10-15T00:51:07.394Z,17.28
2018-10-15T00:52:07.482Z,17.14
2018-10-15T00:54:07.464Z,17.15
2018-10-15T00:55:07.410Z,17.25
2018-10-15T00:57:07.427Z,17.25
2018-10-15T00:58:07.450Z,17.31
2018-10-15T00:59:07.661Z,17.38
2018-10-15T01:00:07.579Z,17.34
2018-10-15T01:01:07.535Z,17.31
2018-10-15T01:02:07.507Z,17.34
2018-10-15T01:04:07.683Z,17.36
2018-10-15T01:05:08.977Z,17.30
2018-10-15T01:07:08.499Z,17.34
2018-10-15T01:08:07.591Z,17.34
2018-10-15T01:09:07.605Z,17.25
2018-10-15T01:10:07.669Z,17.26
2018-10-15T01:11:07.634Z,17.28
2018-10-15T01:12:07.653Z,17.26
2018-10-15T01:13:07.773Z,17.25
2018-10-15T01:14:07.733Z,17.23
2018-10-15T01:15:08.058Z,17.23
2018-10-15T01:16:07.792Z,17.18
2018-10-15T01:17:08.490Z,17.22
2018-10-15T01:18:07.760Z,17.26
2018-10-15T01:19:07.802Z,17.22
2018-10-15T01:20:07.768Z,17.16
2018-10-15T01:22:07.847Z,17.15
2018-10-15T01:23:08.083Z,17.06
2018-10-15T01:26:07.892Z,17.08
2018-10-15T01:27:07.890Z,17.06
2018-10-15T01:28:07.889Z,17.03
2018-10-15T01:29:08.005Z,16.94
2018-10-15T01:31:08.285Z,16.91
2018-10-15T01:32:09.044Z,16.82
2018-10-15T01:33:08.194Z,16.81
2018-10-15T01:34:08.221Z,16.89
2018-10-15T01:35:08.464Z,16.94
2018-10-15T01:36:08.550Z,16.94
2018-10-15T01:38:08.252Z,16.91
2018-10-15T01:39:08.291Z,16.97
2018-10-15T01:40:08.064Z,16.97
2018-10-15T01:41:08.089Z,16.88
2018-10-15T01:42:08.098Z,16.96
2018-10-15T01:43:08.110Z,16.82
2018-10-15T01:44:08.122Z,16.82
2018-10-15T01:45:08.138Z,16.76
2018-10-15T01:46:08.153Z,16.83
2018-10-15T01:47:08.168Z,16.82
2018-10-15T01:51:08.705Z,16.75
2018-10-15T01:52:08.243Z,16.73
2018-10-15T01:53:09.203Z,16.73
2018-10-15T01:54:08.387Z,16.67
2018-10-15T01:55:08.917Z,16.75
2018-10-15T01:56:08.316Z,16.66
2018-10-15T01:57:08.320Z,16.61
2018-10-15T01:58:08.335Z,16.64
2018-10-15T01:59:08.346Z,16.63
2018-10-15T02:00:08.368Z,16.67
2018-10-15T02:01:08.378Z,16.64
2018-10-15T02:02:08.438Z,16.61
2018-10-15T02:03:08.508Z,16.64
2018-10-15T02:04:08.421Z,16.61
2018-10-15T02:05:08.433Z,16.64
2018-10-15T02:06:08.452Z,16.64
2018-10-15T02:07:08.712Z,16.67
2018-10-15T02:08:08.781Z,16.67
2018-10-15T02:10:09.167Z,16.64
2018-10-15T02:11:09.234Z,16.58
2018-10-15T02:12:08.844Z,16.60
2018-10-15T02:13:09.628Z,16.58
2018-10-15T02:14:08.579Z,16.58
2018-10-15T02:15:08.588Z,16.49
2018-10-15T02:16:09.117Z,16.45
2018-10-15T02:18:08.704Z,16.49
2018-10-15T02:20:08.655Z,16.42
2018-10-15T02:21:08.681Z,16.41
2018-10-15T02:22:09.876Z,16.38
2018-10-15T02:23:08.717Z,16.38
2018-10-15T02:24:08.779Z,16.30
2018-10-15T02:25:08.729Z,16.45
2018-10-15T02:26:08.827Z,16.39
2018-10-15T02:27:08.759Z,16.35
2018-10-15T02:28:08.779Z,16.42
2018-10-15T02:30:08.825Z,16.38
2018-10-15T02:31:08.832Z,16.38
2018-10-15T02:32:08.832Z,16.42
2018-10-15T02:33:08.880Z,16.52
2018-10-15T02:34:08.868Z,16.46
2018-10-15T02:35:09.197Z,16.49
2018-10-15T02:36:08.890Z,16.41
2018-10-15T02:37:08.928Z,16.45
2018-10-15T02:38:08.922Z,16.35
2018-10-15T02:39:09.137Z,16.35
2018-10-15T02:40:09.415Z,16.38
2018-10-15T02:42:09.109Z,16.23
2018-10-15T02:43:08.993Z,16.23
2018-10-15T02:44:09.317Z,16.07
2018-10-15T02:45:09.023Z,16.17
2018-10-15T02:46:09.044Z,16.07
2018-10-15T02:47:09.560Z,16.23
2018-10-15T02:48:09.394Z,16.07
2018-10-15T02:49:09.083Z,16.07
2018-10-15T02:50:09.130Z,16.07
2018-10-15T02:51:09.496Z,16.07
2018-10-15T02:53:09.262Z,16.05
2018-10-15T02:54:09.409Z,16.05
2018-10-15T02:55:09.647Z,16.08
2018-10-15T02:56:09.196Z,16.05
2018-10-15T02:57:09.261Z,16.07
2018-10-15T02:58:09.218Z,16.11
2018-10-15T03:00:09.281Z,16.11
2018-10-15T03:01:09.304Z,16.08
2018-10-15T03:02:09.560Z,16.11
2018-10-15T03:03:09.290Z,16.05
2018-10-15T03:04:09.418Z,16.09
2018-10-15T03:05:09.368Z,16.07
2018-10-15T03:06:09.675Z,16.05
2018-10-15T03:07:09.634Z,16.04
2018-10-15T03:08:09.472Z,16.00
2018-10-15T03:09:09.378Z,16.04
2018-10-15T03:10:09.495Z,16.01
2018-10-15T03:11:09.613Z,16.01
2018-10-15T03:12:09.422Z,15.97
2018-10-15T03:14:10.407Z,16.09
2018-10-15T03:15:09.468Z,16.11
2018-10-15T03:16:09.489Z,16.11
2018-10-15T03:17:09.500Z,16.09
2018-10-15T03:18:09.526Z,16.08
2018-10-15T03:20:09.623Z,16.07
2018-10-15T03:21:09.783Z,16.11
2018-10-15T03:22:09.697Z,16.04
2018-10-15T03:23:10.355Z,16.12
2018-10-15T03:24:09.684Z,16.05
2018-10-15T03:25:09.615Z,16.05
2018-10-15T03:26:09.637Z,16.07
2018-10-15T03:27:09.765Z,16.08
2018-10-15T03:28:10.119Z,16.07
2018-10-15T03:30:09.837Z,15.96
2018-10-15T03:31:11.056Z,15.96
2018-10-15T03:32:09.964Z,16.00
2018-10-15T03:33:10.838Z,15.94
2018-10-15T03:34:09.775Z,16.07
2018-10-15T03:35:09.872Z,16.05
2018-10-15T03:36:09.772Z,16.07
2018-10-15T03:37:09.786Z,16.08
2018-10-15T03:38:09.804Z,16.04
2018-10-15T03:39:09.816Z,16.08
2018-10-15T03:40:09.834Z,16.05
2018-10-15T03:41:09.869Z,16.05
2018-10-15T03:42:09.980Z,16.07
2018-10-15T03:43:10.104Z,16.01
2018-10-15T03:44:10.452Z,15.90
2018-10-15T03:45:10.682Z,15.94
2018-10-15T03:46:09.929Z,15.78
2018-10-15T03:47:09.935Z,15.75
2018-10-15T03:48:09.949Z,15.83
2018-10-15T03:49:09.968Z,15.83
2018-10-15T03:50:09.977Z,15.76
2018-10-15T03:51:10.134Z,15.76
2018-10-15T03:53:10.024Z,15.75
2018-10-15T03:54:10.043Z,15.72
2018-10-15T03:55:10.264Z,15.72
2018-10-15T03:56:10.216Z,15.76
2018-10-15T03:57:10.164Z,15.74
2018-10-15T03:58:10.782Z,15.74
2018-10-15T04:00:11.280Z,15.82
2018-10-15T04:01:10.149Z,15.72
2018-10-15T04:02:10.167Z,15.72
2018-10-15T04:03:10.201Z,15.76
2018-10-15T04:04:10.184Z,15.75
2018-10-15T04:05:10.201Z,15.78
2018-10-15T04:06:10.235Z,15.72
2018-10-15T04:07:10.228Z,15.78
2018-10-15T04:08:10.251Z,15.75
2018-10-15T04:09:10.266Z,15.80
2018-10-15T04:10:10.875Z,15.71
2018-10-15T04:11:10.474Z,15.69
2018-10-15T04:12:10.718Z,15.62
2018-10-15T04:13:11.023Z,15.75
2018-10-15T04:14:10.358Z,15.75
2018-10-15T04:15:10.347Z,15.67
2018-10-15T04:17:11.860Z,15.78
2018-10-15T04:18:11.510Z,15.67
2018-10-15T04:19:11.312Z,15.72
2018-10-15T04:20:10.576Z,15.69
2018-10-15T04:21:10.875Z,15.74
2018-10-15T04:22:10.841Z,15.74
2018-10-15T04:23:10.585Z,15.78
2018-10-15T04:25:10.543Z,15.60
2018-10-15T04:26:10.538Z,15.59
2018-10-15T04:27:10.688Z,15.57
2018-10-15T04:29:10.558Z,15.57
2018-10-15T04:30:10.564Z,15.56
2018-10-15T04:34:11.643Z,15.47
2018-10-15T04:35:10.639Z,15.49
2018-10-15T04:36:10.889Z,15.50
2018-10-15T04:37:10.683Z,15.47
2018-10-15T04:38:10.925Z,15.49
2018-10-15T04:39:10.777Z,15.51
2018-10-15T04:40:11.097Z,15.50
2018-10-15T04:41:11.482Z,15.50
2018-10-15T04:42:11.360Z,15.50
2018-10-15T04:43:10.763Z,15.47
2018-10-15T04:44:12.287Z,15.38
2018-10-15T04:45:10.890Z,15.46
2018-10-15T04:47:11.571Z,15.35
2018-10-15T04:49:11.868Z,15.35
2018-10-15T04:50:11.683Z,15.32
2018-10-15T04:51:10.885Z,15.36
2018-10-15T04:52:12.305Z,15.28
2018-10-15T04:53:10.917Z,15.31
2018-10-15T04:54:10.917Z,15.29
2018-10-15T04:55:11.227Z,15.28
2018-10-15T04:56:11.127Z,15.36
2018-10-15T04:57:10.999Z,15.38
2018-10-15T04:58:10.983Z,15.39
2018-10-15T04:59:10.999Z,15.36
2018-10-15T05:00:11.092Z,15.35
2018-10-15T05:01:11.033Z,15.35
2018-10-15T05:02:11.073Z,15.34
2018-10-15T05:03:11.059Z,15.38
2018-10-15T05:04:11.090Z,15.35
2018-10-15T05:05:11.096Z,15.31
2018-10-15T05:06:11.093Z,15.43
2018-10-15T05:07:11.107Z,15.35
2018-10-15T05:08:11.116Z,15.35
2018-10-15T05:09:11.132Z,15.38
2018-10-15T05:10:11.147Z,15.36
2018-10-15T05:11:11.164Z,15.29
2018-10-15T05:12:11.226Z,15.27
2018-10-15T05:13:11.190Z,15.25
2018-10-15T05:14:11.259Z,15.25
2018-10-15T05:15:11.227Z,15.27
2018-10-15T05:16:11.257Z,15.25
2018-10-15T05:17:11.248Z,15.14
2018-10-15T05:18:11.355Z,15.20
2018-10-15T05:19:12.432Z,15.20
2018-10-15T05:20:11.627Z,15.28
2018-10-15T05:21:12.678Z,15.21
2018-10-15T05:22:11.340Z,15.25
2018-10-15T05:23:11.831Z,15.29
2018-10-15T05:24:11.739Z,15.14
2018-10-15T05:25:11.464Z,15.19
2018-10-15T05:26:11.642Z,15.20
2018-10-15T05:27:11.640Z,15.20
2018-10-15T05:28:11.556Z,15.19
2018-10-15T05:29:11.618Z,15.14
2018-10-15T05:30:11.616Z,15.19
2018-10-15T05:31:11.454Z,15.13
2018-10-15T05:32:11.642Z,15.19
2018-10-15T05:33:11.493Z,15.07
2018-10-15T05:34:11.513Z,15.06
2018-10-15T05:35:11.529Z,15.10
2018-10-15T05:36:11.598Z,15.02
2018-10-15T05:37:11.549Z,15.17
2018-10-15T05:38:11.578Z,15.21
2018-10-15T05:39:11.574Z,15.11
2018-10-15T05:40:11.674Z,15.19
2018-10-15T05:41:11.702Z,15.17
2018-10-15T05:42:11.726Z,15.20
2018-10-15T05:43:11.641Z,15.11
2018-10-15T05:44:12.116Z,15.17
2018-10-15T05:45:11.658Z,15.19
2018-10-15T05:46:11.687Z,15.17
2018-10-15T05:47:11.806Z,15.17
2018-10-15T05:48:11.768Z,15.20
2018-10-15T05:49:11.765Z,15.20
2018-10-15T05:50:11.759Z,15.23
2018-10-15T05:51:11.883Z,15.20
2018-10-15T05:52:11.850Z,15.20
2018-10-15T05:53:11.775Z,15.23
2018-10-15T05:54:11.853Z,15.20
2018-10-15T05:55:11.865Z,15.20
2018-10-15T05:56:11.886Z,15.20
2018-10-15T05:57:11.829Z,15.17
2018-10-15T05:58:11.845Z,15.17
2018-10-15T05:59:11.859Z,15.13
2018-10-15T06:00:11.949Z,15.16
2018-10-15T06:01:11.891Z,15.09
2018-10-15T06:02:11.911Z,15.09
2018-10-15T06:03:12.228Z,15.13
2018-10-15T06:04:12.135Z,15.03
2018-10-15T06:05:11.998Z,15.17
2018-10-15T06:06:11.994Z,15.07
2018-10-15T06:07:11.973Z,15.09
2018-10-15T06:08:11.997Z,15.14
2018-10-15T06:09:12.005Z,15.11
2018-10-15T06:10:12.020Z,14.99
2018-10-15T06:11:12.333Z,15.03
2018-10-15T06:12:12.152Z,15.03
2018-10-15T06:15:12.298Z,15.03
2018-10-15T06:16:13.319Z,15.14
2018-10-15T06:17:12.541Z,15.02
2018-10-15T06:18:13.082Z,15.06
2018-10-15T06:20:12.442Z,14.99
2018-10-15T06:21:12.705Z,15.01
2018-10-15T06:22:12.202Z,15.02
2018-10-15T06:23:12.367Z,15.01
2018-10-15T06:24:12.353Z,15.06
2018-10-15T06:25:13.396Z,15.09
2018-10-15T06:26:12.303Z,15.02
2018-10-15T06:28:12.505Z,15.11
2018-10-15T06:29:12.341Z,15.06
2018-10-15T06:31:12.416Z,15.19
2018-10-15T06:32:12.682Z,15.17
2018-10-15T06:33:12.458Z,15.20
2018-10-15T06:34:12.759Z,15.17
2018-10-15T06:35:12.443Z,15.23
2018-10-15T06:36:12.461Z,15.27
2018-10-15T06:37:12.503Z,15.35
2018-10-15T06:38:12.512Z,15.28
2018-10-15T06:41:13.469Z,15.41
2018-10-15T06:43:12.880Z,15.44
2018-10-15T06:44:12.664Z,15.43
2018-10-15T06:45:13.190Z,15.49
2018-10-15T06:46:12.912Z,15.47
2018-10-15T06:47:12.635Z,15.43
2018-10-15T06:48:12.571Z,15.44
2018-10-15T06:49:12.621Z,15.49
2018-10-15T06:50:12.601Z,15.47
2018-10-15T06:52:12.670Z,15.49
2018-10-15T06:53:12.825Z,15.51
2018-10-15T06:54:12.751Z,15.50
2018-10-15T06:55:12.867Z,15.51
2018-10-15T06:56:13.006Z,15.47
2018-10-15T06:57:12.767Z,15.47
2018-10-15T06:58:12.746Z,15.49
2018-10-15T06:59:12.760Z,15.44
2018-10-15T07:00:12.760Z,15.41
2018-10-15T07:02:12.853Z,15.43
2018-10-15T07:03:13.183Z,15.32
2018-10-15T07:04:13.036Z,15.35
2018-10-15T07:05:12.864Z,15.29
2018-10-15T07:06:13.319Z,15.36
2018-10-15T07:07:12.933Z,15.31
2018-10-15T07:09:12.988Z,15.36
2018-10-15T07:10:12.906Z,15.32
2018-10-15T07:11:12.903Z,15.36
2018-10-15T07:12:12.939Z,15.38
2018-10-15T07:13:13.043Z,15.36
2018-10-15T07:14:13.007Z,15.34
2018-10-15T07:15:12.958Z,15.31
2018-10-15T07:16:13.158Z,15.32
2018-10-15T07:17:13.186Z,15.32
2018-10-15T07:18:13.681Z,15.35
2018-10-15T07:19:13.098Z,15.38
2018-10-15T07:20:13.105Z,15.38
2018-10-15T07:21:13.042Z,15.35
2018-10-15T07:22:13.279Z,15.35
2018-10-15T07:23:13.085Z,15.43
2018-10-15T07:24:13.162Z,15.35
2018-10-15T07:25:13.132Z,15.35
2018-10-15T07:26:13.496Z,15.29
2018-10-15T07:27:13.133Z,15.31
2018-10-15T07:28:13.165Z,15.46
2018-10-15T07:29:13.235Z,15.49
2018-10-15T07:30:13.281Z,15.51
2018-10-15T07:31:13.190Z,15.49
2018-10-15T07:32:13.211Z,15.50
2018-10-15T07:33:13.277Z,15.49
2018-10-15T07:34:14.288Z,15.47
2018-10-15T07:35:13.246Z,15.59
2018-10-15T07:36:13.409Z,15.59
2018-10-15T07:37:13.839Z,15.64
2018-10-15T07:38:13.502Z,15.65
2018-10-15T07:39:13.567Z,15.68
2018-10-15T07:40:13.480Z,15.62
2018-10-15T07:43:13.482Z,15.78
2018-10-15T07:44:13.528Z,15.76
2018-10-15T07:46:13.840Z,15.86
2018-10-15T07:47:13.523Z,15.94
2018-10-15T07:48:13.881Z,15.94
2018-10-15T07:49:13.457Z,16.08
2018-10-15T07:50:13.635Z,16.05
2018-10-15T07:51:13.496Z,16.20
2018-10-15T07:53:13.698Z,16.30
2018-10-15T07:54:13.871Z,16.38
2018-10-15T07:55:13.825Z,16.50
2018-10-15T07:56:13.593Z,16.45
2018-10-15T07:57:15.519Z,16.49
2018-10-15T07:58:14.117Z,16.57
2018-10-15T07:59:17.187Z,16.60
2018-10-15T08:03:16.105Z,16.79
2018-10-15T08:04:14.740Z,16.91
2018-10-15T08:06:14.005Z,16.96
2018-10-15T08:08:14.630Z,17.03
2018-10-15T08:09:14.364Z,17.04
2018-10-15T08:10:14.281Z,17.00
2018-10-15T08:12:16.810Z,17.30
2018-10-15T08:13:14.441Z,17.33
2018-10-15T08:15:15.638Z,17.48
2018-10-15T08:16:14.264Z,17.58
2018-10-15T08:18:14.054Z,17.66
2018-10-15T08:19:15.427Z,17.77
2018-10-15T08:20:15.026Z,17.90
2018-10-15T08:21:16.711Z,17.89
2018-10-15T08:23:15.388Z,18.03
2018-10-15T08:24:15.873Z,18.18
2018-10-15T08:25:15.229Z,18.14
2018-10-15T08:26:15.308Z,18.26
2018-10-15T08:27:15.853Z,18.29
2018-10-15T08:28:15.680Z,18.45
2018-10-15T08:29:15.739Z,18.47
2018-10-15T08:30:15.727Z,18.55
2018-10-15T08:31:15.316Z,18.57
2018-10-15T08:32:14.720Z,18.72
2018-10-15T08:33:15.221Z,18.75
2018-10-15T08:34:15.375Z,18.82
2018-10-15T08:35:16.056Z,18.84
2018-10-15T08:36:16.112Z,18.94
2018-10-15T08:37:16.528Z,19.02
2018-10-15T08:38:15.822Z,19.08
2018-10-15T08:39:16.185Z,19.11
2018-10-15T08:40:16.236Z,19.16
2018-10-15T08:41:15.795Z,19.28
2018-10-15T08:42:16.529Z,19.32
2018-10-15T08:43:16.409Z,19.32
2018-10-15T08:44:15.993Z,19.44
2018-10-15T08:45:15.181Z,19.48
2018-10-15T08:46:15.930Z,19.56
2018-10-15T08:47:16.216Z,19.51
2018-10-15T08:48:15.789Z,19.55
2018-10-15T08:49:15.964Z,19.59
2018-10-15T08:50:16.630Z,19.68
2018-10-15T08:51:15.937Z,19.69
2018-10-15T08:52:16.736Z,19.74
2018-10-15T08:53:16.642Z,19.80
2018-10-15T08:54:16.453Z,19.83
2018-10-15T08:55:17.287Z,19.83
2018-10-15T08:56:17.042Z,19.86
2018-10-15T08:57:15.981Z,19.86
2018-10-15T08:58:16.124Z,19.91
2018-10-15T08:59:15.569Z,19.91
2018-10-15T09:00:15.667Z,19.95
2018-10-15T09:01:16.055Z,19.99
2018-10-15T09:02:15.608Z,19.94
2018-10-15T09:03:17.098Z,19.91
2018-10-15T09:04:17.615Z,20.01
2018-10-15T09:05:16.283Z,19.98
2018-10-15T09:06:16.234Z,19.98
2018-10-15T09:07:15.685Z,19.99
2018-10-15T09:09:16.079Z,20.08
2018-10-15T09:10:16.705Z,20.14
2018-10-15T09:11:15.888Z,20.18
2018-10-15T09:12:16.698Z,20.23
2018-10-15T09:13:16.129Z,20.32
2018-10-15T09:14:17.159Z,20.32
2018-10-15T09:15:16.303Z,20.42
2018-10-15T09:16:16.745Z,20.50
2018-10-15T09:17:17.438Z,20.41
2018-10-15T09:18:17.009Z,20.50
2018-10-15T09:19:15.924Z,20.51
2018-10-15T09:20:15.173Z,20.55
2018-10-15T09:21:16.934Z,20.69
2018-10-15T09:22:16.216Z,20.67
2018-10-15T09:23:16.032Z,20.73
2018-10-15T09:26:14.911Z,20.84
2018-10-15T09:27:15.960Z,20.95
2018-10-15T09:29:16.544Z,21.01
2018-10-15T09:30:14.966Z,21.09
2018-10-15T09:31:15.023Z,21.21
2018-10-15T09:32:15.236Z,21.24
2018-10-15T09:33:15.378Z,21.24
2018-10-15T09:34:15.327Z,21.35
2018-10-15T09:35:15.097Z,21.32
2018-10-15T09:36:15.068Z,21.35
2018-10-15T09:38:15.342Z,21.43
2018-10-15T09:39:15.605Z,21.47
2018-10-15T09:40:15.225Z,21.59
2018-10-15T09:41:15.473Z,21.67
2018-10-15T09:42:15.167Z,21.62
2018-10-15T09:44:15.387Z,21.80
2018-10-15T09:45:15.969Z,21.80
2018-10-15T09:46:15.254Z,21.92
2018-10-15T09:47:15.241Z,21.99
2018-10-15T09:48:15.259Z,21.98
2018-10-15T09:49:15.259Z,21.99
2018-10-15T09:50:15.313Z,22.00
2018-10-15T09:51:15.349Z,22.07
2018-10-15T09:52:15.312Z,22.06
2018-10-15T09:53:15.847Z,22.21
2018-10-15T09:54:15.344Z,22.27
2018-10-15T09:55:15.951Z,22.36
2018-10-15T09:56:16.462Z,22.45
2018-10-15T09:57:15.411Z,22.39
2018-10-15T09:58:16.196Z,22.52
2018-10-15T09:59:16.020Z,22.45
2018-10-15T10:00:15.494Z,22.49
2018-10-15T10:01:16.647Z,22.47
2018-10-15T10:02:15.579Z,22.57
2018-10-15T10:03:15.486Z,22.57
2018-10-15T10:04:15.618Z,22.58
2018-10-15T10:05:15.523Z,22.60
2018-10-15T10:06:15.621Z,22.64
2018-10-15T10:07:15.577Z,22.65
2018-10-15T10:08:15.561Z,22.65
2018-10-15T10:09:15.579Z,22.62
2018-10-15T10:10:15.615Z,22.70
2018-10-15T10:11:16.964Z,22.75
2018-10-15T10:12:15.683Z,22.83
2018-10-15T10:13:15.677Z,22.75
2018-10-15T10:14:16.274Z,22.79
2018-10-15T10:15:15.754Z,22.77
2018-10-15T10:16:15.695Z,22.86
2018-10-15T10:17:15.772Z,22.79
2018-10-15T10:19:15.729Z,22.86
2018-10-15T10:20:15.967Z,23.00
2018-10-15T10:21:15.826Z,22.88
2018-10-15T10:22:15.991Z,22.85
2018-10-15T10:23:15.798Z,22.86
2018-10-15T10:24:16.045Z,22.92
2018-10-15T10:25:15.828Z,23.01
2018-10-15T10:26:15.891Z,23.01
2018-10-15T10:27:16.529Z,23.00
2018-10-15T10:28:15.947Z,22.98
2018-10-15T10:29:15.940Z,23.02
2018-10-15T10:30:15.925Z,23.05
2018-10-15T10:31:16.077Z,23.05
2018-10-15T10:33:16.007Z,23.07
2018-10-15T10:34:16.055Z,23.17
2018-10-15T10:36:16.105Z,23.10
2018-10-15T10:37:16.029Z,23.19
2018-10-15T10:39:16.055Z,23.32
2018-10-15T10:40:16.085Z,23.32
2018-10-15T10:41:16.154Z,23.27
2018-10-15T10:42:16.161Z,23.39
2018-10-15T10:43:16.114Z,23.36
2018-10-15T10:44:16.130Z,23.39
2018-10-15T10:46:16.162Z,23.39
2018-10-15T10:47:16.260Z,23.35
2018-10-15T10:48:16.200Z,23.35
2018-10-15T10:49:16.212Z,23.43
2018-10-15T10:50:16.379Z,23.47
2018-10-15T10:51:16.810Z,23.38
2018-10-15T10:52:16.260Z,23.48
2018-10-15T10:53:16.276Z,23.42
2018-10-15T10:54:16.397Z,23.54
2018-10-15T10:55:16.327Z,23.55
2018-10-15T10:56:16.323Z,23.48
2018-10-15T10:57:16.341Z,23.54
2018-10-15T10:58:16.358Z,23.57
2018-10-15T10:59:16.406Z,23.55
2018-10-15T11:00:16.392Z,23.54
2018-10-15T11:01:17.457Z,23.57
2018-10-15T11:02:16.519Z,23.60
2018-10-15T11:03:16.442Z,23.50
2018-10-15T11:04:16.461Z,23.54
2018-10-15T11:05:16.473Z,23.55
2018-10-15T11:06:16.707Z,23.54
2018-10-15T11:07:16.517Z,23.48
2018-10-15T11:08:16.595Z,23.60
2018-10-15T11:09:16.537Z,23.66
2018-10-15T11:10:16.648Z,23.66
2018-10-15T11:11:16.684Z,23.75
2018-10-15T11:12:16.910Z,23.70
2018-10-15T11:13:16.748Z,23.46
2018-10-15T11:14:17.139Z,23.51
2018-10-15T11:15:16.783Z,23.54
2018-10-15T11:16:16.858Z,23.53
2018-10-15T11:17:16.715Z,23.53
2018-10-15T11:18:16.710Z,23.61
2018-10-15T11:19:16.703Z,23.68
2018-10-15T11:20:16.730Z,23.65
2018-10-15T11:21:16.835Z,23.66
2018-10-15T11:22:16.756Z,23.75
2018-10-15T11:23:16.772Z,23.75
2018-10-15T11:24:16.898Z,23.80
2018-10-15T11:26:16.815Z,23.85
2018-10-15T11:27:16.831Z,23.93
2018-10-15T11:28:17.807Z,23.94
2018-10-15T11:29:16.866Z,24.05
2018-10-15T11:30:17.480Z,24.09
2018-10-15T11:31:16.897Z,24.13
2018-10-15T11:32:16.923Z,24.12
2018-10-15T11:33:17.293Z,24.09
2018-10-15T11:34:17.170Z,24.05
2018-10-15T11:35:17.327Z,24.09
2018-10-15T11:36:17.009Z,24.12
2018-10-15T11:37:17.003Z,24.15
2018-10-15T11:39:17.051Z,24.10
2018-10-15T11:41:17.172Z,24.09
2018-10-15T11:42:17.870Z,24.12
2018-10-15T11:44:17.328Z,24.06
2018-10-15T11:45:17.138Z,24.09
2018-10-15T11:46:17.147Z,24.06
2018-10-15T11:47:17.169Z,23.97
2018-10-15T11:48:17.273Z,24.12
2018-10-15T11:49:17.225Z,24.22
2018-10-15T11:50:17.226Z,24.24
2018-10-15T11:51:17.254Z,24.31
2018-10-15T11:52:17.245Z,24.27
2018-10-15T11:53:17.260Z,24.24
2018-10-15T11:54:17.280Z,24.28
2018-10-15T11:55:17.294Z,24.24
2018-10-15T11:56:17.313Z,24.18
2018-10-15T11:57:17.479Z,24.18
2018-10-15T11:58:17.427Z,24.20
2018-10-15T12:00:17.387Z,24.39
2018-10-15T12:01:17.395Z,24.40
2018-10-15T12:02:17.446Z,24.45
2018-10-15T12:03:17.430Z,24.55
2018-10-15T12:04:17.492Z,24.46
2018-10-15T12:05:17.466Z,24.40
2018-10-15T12:06:17.516Z,24.49
2018-10-15T12:07:17.645Z,24.42
2018-10-15T12:08:17.516Z,24.52
2018-10-15T12:09:17.556Z,24.50
2018-10-15T12:10:17.544Z,24.43
2018-10-15T12:11:17.653Z,24.42
2018-10-15T12:12:17.594Z,24.45
2018-10-15T12:13:17.598Z,24.55
2018-10-15T12:14:17.625Z,24.55
2018-10-15T12:15:17.627Z,24.60
2018-10-15T12:16:17.645Z,24.60
2018-10-15T12:17:17.664Z,24.65
2018-10-15T12:18:17.831Z,24.65
2018-10-15T12:19:17.749Z,24.69
2018-10-15T12:20:17.713Z,24.62
2018-10-15T12:21:17.734Z,24.61
2018-10-15T12:22:17.773Z,24.55
2018-10-15T12:23:17.794Z,24.50
2018-10-15T12:24:17.784Z,24.45
2018-10-15T12:25:18.445Z,24.57
2018-10-15T12:26:18.173Z,24.61
2018-10-15T12:27:17.834Z,24.60
2018-10-15T12:28:18.126Z,24.58
2018-10-15T12:29:18.349Z,24.50
2018-10-15T12:30:17.880Z,24.53
2018-10-15T12:31:18.591Z,24.60
2018-10-15T12:32:18.102Z,24.61
2018-10-15T12:33:18.023Z,24.68
2018-10-15T12:34:17.999Z,24.84
2018-10-15T12:35:18.171Z,24.83
2018-10-15T12:36:17.996Z,24.71
2018-10-15T12:37:17.996Z,24.84
2018-10-15T12:38:18.025Z,24.80
2018-10-15T12:39:18.139Z,24.98
2018-10-15T12:40:18.062Z,25.02
2018-10-15T12:41:18.266Z,25.08
2018-10-15T12:42:18.092Z,25.17
2018-10-15T12:43:18.097Z,25.21
2018-10-15T12:44:18.123Z,25.17
2018-10-15T12:45:18.144Z,25.06
2018-10-15T12:46:18.160Z,24.99
2018-10-15T12:47:18.170Z,24.93
2018-10-15T12:48:18.271Z,24.81
2018-10-15T12:49:18.206Z,24.77
2018-10-15T12:50:18.268Z,24.73
2018-10-15T12:51:18.410Z,24.71
2018-10-15T12:53:18.318Z,24.68
2018-10-15T12:54:18.285Z,24.83
2018-10-15T12:55:18.302Z,24.83
2018-10-15T12:56:20.980Z,24.85
2018-10-15T12:57:18.455Z,24.98
2018-10-15T12:58:18.364Z,24.98
2018-10-15T12:59:18.821Z,25.03
2018-10-15T13:00:18.433Z,25.15
2018-10-15T13:01:18.422Z,25.15
2018-10-15T13:02:18.442Z,25.36
2018-10-15T13:03:18.482Z,25.28
2018-10-15T13:04:18.526Z,25.30
2018-10-15T13:05:18.486Z,25.18
2018-10-15T13:06:18.496Z,25.24
2018-10-15T13:07:18.513Z,25.25
2018-10-15T13:08:18.526Z,25.43
2018-10-15T13:09:18.549Z,25.57
2018-10-15T13:10:18.652Z,25.72
2018-10-15T13:11:18.580Z,25.61
2018-10-15T13:12:18.616Z,25.58
2018-10-15T13:13:18.617Z,25.75
2018-10-15T13:14:19.109Z,25.91
2018-10-15T13:15:18.668Z,25.98
2018-10-15T13:16:19.197Z,26.01
2018-10-15T13:17:19.434Z,25.90
2018-10-15T13:19:18.841Z,25.76
2018-10-15T13:20:19.055Z,25.76
2018-10-15T13:21:18.772Z,25.65
2018-10-15T13:22:18.828Z,25.57
2018-10-15T13:23:18.800Z,25.62
2018-10-15T13:24:18.811Z,25.67
2018-10-15T13:25:18.828Z,25.50
2018-10-15T13:26:18.883Z,25.50
2018-10-15T13:27:18.964Z,25.43
2018-10-15T13:28:18.879Z,25.24
2018-10-15T13:29:18.957Z,25.18
2018-10-15T13:30:18.988Z,25.06
2018-10-15T13:31:18.942Z,25.09
2018-10-15T13:32:19.532Z,25.00
2018-10-15T13:33:19.096Z,24.99
2018-10-15T13:34:19.059Z,24.96
2018-10-15T13:36:19.167Z,24.80
2018-10-15T13:37:19.076Z,24.83
2018-10-15T13:38:19.059Z,24.69
2018-10-15T13:39:19.074Z,24.71
2018-10-15T13:40:19.095Z,24.81
2018-10-15T13:41:19.111Z,24.91
2018-10-15T13:42:19.124Z,24.99
2018-10-15T13:43:19.874Z,25.10
2018-10-15T13:44:19.162Z,25.18
2018-10-15T13:45:19.269Z,25.14
2018-10-15T13:46:19.206Z,25.02
2018-10-15T13:47:19.239Z,24.93
2018-10-15T13:48:19.229Z,24.85
2018-10-15T13:49:19.260Z,24.83
2018-10-15T13:50:19.263Z,24.87
2018-10-15T13:51:19.284Z,24.87
2018-10-15T13:52:19.301Z,24.87
2018-10-15T13:53:19.323Z,24.84
2018-10-15T13:54:19.338Z,24.84
2018-10-15T13:55:19.383Z,24.81
2018-10-15T13:56:19.405Z,24.80
2018-10-15T13:57:19.426Z,24.85
2018-10-15T13:58:19.492Z,25.02
2018-10-15T13:59:19.423Z,25.00
2018-10-15T14:00:19.436Z,24.96
2018-10-15T14:01:19.454Z,24.99
2018-10-15T14:02:19.896Z,24.85
2018-10-15T14:03:19.550Z,24.84
2018-10-15T14:04:19.519Z,24.87
2018-10-15T14:05:19.627Z,24.83
2018-10-15T14:06:19.554Z,24.67
2018-10-15T14:07:19.559Z,24.68
2018-10-15T14:08:19.691Z,24.78
2018-10-15T14:09:19.708Z,24.78
2018-10-15T14:10:19.921Z,24.80
2018-10-15T14:11:19.678Z,24.80
2018-10-15T14:12:19.820Z,24.83